createdAt,value
2022-12-05T00:02:04.496Z,42.30
2022-12-05T00:04:32.956Z,43.60
2022-12-05T00:07:01.370Z,41.77
2022-12-05T00:09:29.903Z,40.20
2022-12-05T00:11:58.309Z,41.20
2022-12-05T00:14:26.517Z,41.13
2022-12-05T00:16:54.983Z,42.80
2022-12-05T00:19:24.559Z,41.30
2022-12-05T00:21:52.809Z,41.90
2022-12-05T00:24:21.789Z,43.80
2022-12-05T00:26:50.119Z,45.83
2022-12-05T00:29:18.729Z,43.57
2022-12-05T00:31:47.220Z,44.17
2022-12-05T00:34:15.671Z,42.80
2022-12-05T00:36:45.422Z,43.17
2022-12-05T00:39:15.426Z,41.17
2022-12-05T00:41:44.749Z,41.03
2022-12-05T00:44:14.293Z,43.27
2022-12-05T00:46:42.962Z,42.80
2022-12-05T00:49:13.147Z,43.23
2022-12-05T00:51:43.770Z,42.10
2022-12-05T00:54:15.537Z,43.30
2022-12-05T00:56:44.990Z,44.07
2022-12-05T00:59:17.852Z,41.97
2022-12-05T01:01:48.118Z,43.83
2022-12-05T01:04:18.918Z,42.10
2022-12-05T01:06:47.409Z,43.57
2022-12-05T01:09:21.215Z,44.50
2022-12-05T01:11:50.636Z,44.07
2022-12-05T01:14:21.069Z,42.80
2022-12-05T01:16:51.090Z,43.13
2022-12-05T01:19:22.600Z,43.23
2022-12-05T01:21:51.858Z,40.23
2022-12-05T01:24:22.767Z,42.53
2022-12-05T01:26:51.367Z,43.33
2022-12-05T01:29:21.489Z,42.90
2022-12-05T01:31:50.004Z,41.33
2022-12-05T01:34:20.163Z,42.03
2022-12-05T01:36:48.873Z,42.80
2022-12-05T01:39:18.157Z,40.67
2022-12-05T01:41:49.730Z,41.07
2022-12-05T01:44:55.089Z,42.30
2022-12-05T01:47:25.072Z,41.10
2022-12-05T01:49:54.577Z,40.13
2022-12-05T01:52:26.659Z,40.03
2022-12-05T01:55:00.350Z,39.60
2022-12-05T01:57:30.132Z,39.17
2022-12-05T02:00:02.880Z,39.47
2022-12-05T02:02:41.385Z,41.03
2022-12-05T02:05:17.310Z,39.87
2022-12-05T02:07:47.405Z,40.80
2022-12-05T02:10:17.152Z,40.70
2022-12-05T02:12:47.187Z,40.63
2022-12-05T02:15:29.394Z,39.20
2022-12-05T02:18:11.840Z,39.47
2022-12-05T02:20:53.346Z,39.43
2022-12-05T02:23:37.779Z,37.20
2022-12-05T02:26:44.709Z,37.83
2022-12-05T02:29:47.136Z,39.87
2022-12-05T02:32:22.138Z,39.10
2022-12-05T02:34:59.489Z,40.77
2022-12-05T02:37:31.593Z,39.43
2022-12-05T02:40:06.214Z,39.77
2022-12-05T02:42:42.969Z,39.37
2022-12-05T02:45:16.281Z,39.97
2022-12-05T02:47:49.489Z,39.23
2022-12-05T02:50:21.737Z,39.43
2022-12-05T02:52:52.653Z,37.73
2022-12-05T02:55:21.930Z,40.50
2022-12-05T02:57:54.199Z,38.60
2022-12-05T03:00:23.878Z,39.07
2022-12-05T03:02:55.598Z,39.10
2022-12-05T03:05:44.519Z,38.70
2022-12-05T03:08:17.970Z,38.73
2022-12-05T03:10:48.450Z,37.77
2022-12-05T03:13:22.208Z,37.90
2022-12-05T03:15:57.640Z,37.30
2022-12-05T03:18:30.489Z,36.83
2022-12-05T03:21:03.770Z,37.43
2022-12-05T03:23:35.487Z,37.03
2022-12-05T03:26:14.514Z,35.10
2022-12-05T03:28:54.363Z,36.33
2022-12-05T03:31:32.458Z,36.87
2022-12-05T03:34:04.619Z,36.37
2022-12-05T03:36:39.230Z,35.70
2022-12-05T03:39:12.738Z,36.93
2022-12-05T03:41:46.640Z,35.80
2022-12-05T03:44:18.440Z,36.03
2022-12-05T03:46:53.538Z,34.70
2022-12-05T03:49:34.143Z,34.83
2022-12-05T03:52:09.301Z,33.60
2022-12-05T03:54:41.200Z,36.17
2022-12-05T03:57:14.134Z,34.47
2022-12-05T03:59:47.069Z,34.70
2022-12-05T04:02:23.031Z,32.87
2022-12-05T04:04:57.265Z,32.43
2022-12-05T04:07:27.001Z,32.10
2022-12-05T04:10:01.261Z,32.50
2022-12-05T04:12:34.431Z,32.37
2022-12-05T04:15:10.062Z,32.17
2022-12-05T04:17:53.244Z,31.50
2022-12-05T04:20:46.288Z,32.17
2022-12-05T04:23:15.113Z,31.43
2022-12-05T04:25:56.511Z,31.00
2022-12-05T04:28:32.770Z,33.13
2022-12-05T04:31:06.567Z,32.30
2022-12-05T04:33:45.382Z,32.27
2022-12-05T04:36:16.474Z,30.07
2022-12-05T04:38:49.957Z,30.63
2022-12-05T04:41:23.633Z,30.53
2022-12-05T04:43:55.393Z,31.37
2022-12-05T04:46:25.556Z,32.10
2022-12-05T04:48:59.679Z,31.37
2022-12-05T04:51:31.190Z,30.87
2022-12-05T04:54:05.570Z,31.00
2022-12-05T04:56:37.646Z,30.83
2022-12-05T04:59:06.347Z,32.53
2022-12-05T05:01:39.992Z,31.50
2022-12-05T05:04:14.111Z,31.87
2022-12-05T05:06:43.168Z,30.33
2022-12-05T05:09:11.959Z,29.43
2022-12-05T05:11:40.774Z,30.50
2022-12-05T05:14:09.241Z,30.97
2022-12-05T05:16:40.478Z,30.73
2022-12-05T05:19:12.077Z,30.30
2022-12-05T05:21:41.984Z,30.13
2022-12-05T05:24:12.149Z,30.10
2022-12-05T05:26:42.417Z,30.43
2022-12-05T05:29:11.439Z,29.73
2022-12-05T05:31:41.202Z,28.47
2022-12-05T05:34:11.667Z,28.37
2022-12-05T05:36:40.400Z,30.10
2022-12-05T05:39:13.687Z,28.43
2022-12-05T05:41:42.943Z,29.40
2022-12-05T05:44:11.779Z,28.87
2022-12-05T05:46:40.238Z,28.73
2022-12-05T05:49:11.233Z,27.90
2022-12-05T05:51:39.447Z,29.23
2022-12-05T05:54:07.625Z,32.07
2022-12-05T05:56:35.899Z,30.83
2022-12-05T05:59:05.392Z,29.17
2022-12-05T06:01:33.801Z,29.90
2022-12-05T06:04:02.315Z,32.57
2022-12-05T06:06:32.160Z,27.90
2022-12-05T06:09:00.388Z,31.07
2022-12-05T06:11:29.749Z,29.13
2022-12-05T06:14:01.124Z,28.00
2022-12-05T06:16:30.387Z,29.80
2022-12-05T06:18:59.088Z,31.77
2022-12-05T06:21:27.679Z,29.87
2022-12-05T06:23:57.672Z,30.50
2022-12-05T06:26:26.324Z,32.17
2022-12-05T06:28:55.148Z,30.10
2022-12-05T06:31:27.156Z,35.90
2022-12-05T06:33:55.940Z,31.60
2022-12-05T06:36:24.303Z,29.63
2022-12-05T06:38:52.602Z,30.83
2022-12-05T06:41:24.558Z,32.77
2022-12-05T06:44:00.185Z,32.67
2022-12-05T06:46:30.240Z,29.70
2022-12-05T06:48:59.862Z,35.73
2022-12-05T06:51:28.159Z,32.60
2022-12-05T06:53:57.219Z,34.97
2022-12-05T06:56:26.832Z,34.83
2022-12-05T06:58:55.769Z,31.37
2022-12-05T07:01:41.214Z,34.47
2022-12-05T07:04:13.312Z,36.37
2022-12-05T07:06:46.165Z,31.13
2022-12-05T07:09:17.973Z,30.60
2022-12-05T07:11:50.352Z,33.90
2022-12-05T07:14:45.973Z,33.67
2022-12-05T07:17:07.272Z,32.73
2022-12-05T07:19:35.720Z,29.87
2022-12-05T07:22:04.194Z,32.43
2022-12-05T07:24:32.648Z,33.50
2022-12-05T07:27:02.230Z,34.73
2022-12-05T07:29:30.659Z,30.33
2022-12-05T07:31:59.060Z,34.83
2022-12-05T07:34:27.499Z,35.07
2022-12-05T07:36:55.783Z,33.83
2022-12-05T07:39:24.111Z,33.70
2022-12-05T07:41:52.409Z,33.53
2022-12-05T07:44:22.408Z,32.30
2022-12-05T07:46:50.782Z,33.00
2022-12-05T07:49:19.250Z,35.50
2022-12-05T07:51:47.540Z,32.37
2022-12-05T07:54:15.861Z,35.40
2022-12-05T07:56:47.744Z,36.23
2022-12-05T07:59:16.517Z,36.37
2022-12-05T08:01:46.167Z,35.43
2022-12-05T08:04:15.695Z,38.83
2022-12-05T08:06:44.654Z,41.27
2022-12-05T08:09:13.170Z,39.80
2022-12-05T08:11:41.487Z,39.37
2022-12-05T08:14:10.181Z,35.43
2022-12-05T08:16:38.685Z,30.63
2022-12-05T08:19:12.971Z,33.60
2022-12-05T08:21:41.523Z,29.70
2022-12-05T08:24:10.610Z,32.50
2022-12-05T08:26:40.220Z,33.03
2022-12-05T08:29:10.381Z,31.73
2022-12-05T08:31:42.154Z,33.33
2022-12-05T08:34:14.011Z,32.70
2022-12-05T08:36:42.883Z,30.33
2022-12-05T08:39:15.925Z,31.17
2022-12-05T08:41:44.843Z,27.80
2022-12-05T08:44:16.328Z,30.67
2022-12-05T08:46:46.080Z,31.13
2022-12-05T08:49:16.981Z,30.87
2022-12-05T08:51:45.350Z,33.97
2022-12-05T08:54:14.022Z,31.23
2022-12-05T08:56:42.405Z,33.93
2022-12-05T08:59:10.698Z,31.43
2022-12-05T09:01:40.718Z,32.00
2022-12-05T09:04:09.637Z,33.13
2022-12-05T09:06:40.681Z,28.47
2022-12-05T09:09:11.852Z,35.97
2022-12-05T09:11:46.488Z,34.07
2022-12-05T09:14:15.549Z,33.97
2022-12-05T09:16:47.533Z,38.83
2022-12-05T09:19:17.501Z,41.53
2022-12-05T09:21:47.400Z,36.40
2022-12-05T09:24:16.036Z,33.03
2022-12-05T09:26:44.732Z,35.77
2022-12-05T09:29:17.261Z,35.93
2022-12-05T09:31:48.567Z,34.03
2022-12-05T09:34:18.651Z,33.73
2022-12-05T09:36:55.607Z,37.93
2022-12-05T09:39:26.930Z,38.73
2022-12-05T09:42:20.543Z,37.57
2022-12-05T09:45:07.160Z,31.40
2022-12-05T09:47:46.939Z,35.50
2022-12-05T09:50:21.197Z,31.80
2022-12-05T09:53:07.983Z,30.40
2022-12-05T09:55:43.309Z,32.77
2022-12-05T09:58:29.243Z,33.17
2022-12-05T10:01:04.202Z,32.50
2022-12-05T10:03:42.422Z,52.43
2022-12-05T10:06:25.314Z,140.80
2022-12-05T10:09:10.228Z,67.87
2022-12-05T10:11:44.770Z,40.20
2022-12-05T10:14:22.739Z,32.07
2022-12-05T10:16:55.460Z,33.90
2022-12-05T10:19:29.972Z,33.40
2022-12-05T10:22:02.957Z,40.10
2022-12-05T10:24:38.451Z,38.00
2022-12-05T10:27:11.062Z,42.67
2022-12-05T10:29:43.902Z,31.57
2022-12-05T10:32:17.737Z,33.37
2022-12-05T10:34:46.690Z,34.40
2022-12-05T10:37:18.249Z,35.73
2022-12-05T10:39:48.605Z,33.33
2022-12-05T10:42:20.279Z,35.13
2022-12-05T10:44:49.447Z,35.10
2022-12-05T10:47:17.874Z,36.63
2022-12-05T10:49:47.254Z,31.20
2022-12-05T10:52:16.710Z,35.90
2022-12-05T10:54:52.742Z,33.00
2022-12-05T10:57:25.841Z,33.70
2022-12-05T10:59:56.643Z,34.73
2022-12-05T11:02:28.656Z,32.87
2022-12-05T11:04:58.745Z,32.63
2022-12-05T11:07:31.952Z,29.30
2022-12-05T11:10:03.300Z,29.67
2022-12-05T11:12:38.488Z,30.70
2022-12-05T11:15:22.550Z,29.43
2022-12-05T11:17:52.546Z,28.77
2022-12-05T11:20:41.462Z,27.63
2022-12-05T11:23:25.637Z,29.37
2022-12-05T11:25:56.180Z,31.80
2022-12-05T11:28:34.270Z,34.83
2022-12-05T11:31:04.921Z,32.30
2022-12-05T11:33:34.869Z,30.90
2022-12-05T11:36:10.249Z,28.90
2022-12-05T11:38:40.529Z,30.37
2022-12-05T11:41:28.528Z,30.73
2022-12-05T11:44:31.399Z,29.77
2022-12-05T11:47:12.147Z,28.10
2022-12-05T11:50:08.871Z,32.67
2022-12-05T11:52:52.931Z,29.27
2022-12-05T11:55:25.828Z,33.40
2022-12-05T11:58:21.945Z,29.40
2022-12-05T12:01:01.917Z,31.03
2022-12-05T12:04:04.652Z,29.37
2022-12-05T12:06:43.585Z,31.53
2022-12-05T12:09:28.121Z,30.77
2022-12-05T12:12:06.631Z,33.47
2022-12-05T12:14:47.352Z,29.57
2022-12-05T12:17:26.099Z,31.07
2022-12-05T12:20:13.148Z,30.03
2022-12-05T12:22:58.230Z,31.07
2022-12-05T12:25:34.824Z,31.33
2022-12-05T12:28:17.035Z,33.40
2022-12-05T12:30:59.093Z,39.97
2022-12-05T12:33:34.372Z,39.90
2022-12-05T12:36:13.897Z,34.93
2022-12-05T12:39:09.172Z,32.20
2022-12-05T12:41:54.781Z,32.53
2022-12-05T12:44:50.721Z,33.80
2022-12-05T12:47:30.166Z,33.17
2022-12-05T12:50:10.709Z,34.63
2022-12-05T12:53:06.327Z,39.13
2022-12-05T12:55:43.352Z,44.63
2022-12-05T12:58:23.000Z,33.97
2022-12-05T13:01:02.612Z,35.17
2022-12-05T13:03:38.952Z,35.87
2022-12-05T13:06:14.503Z,34.37
2022-12-05T13:08:47.569Z,36.97
2022-12-05T13:11:18.584Z,41.37
2022-12-05T13:13:51.469Z,36.33
2022-12-05T13:16:26.520Z,38.70
2022-12-05T13:18:58.532Z,38.33
2022-12-05T13:21:28.337Z,37.20
2022-12-05T13:24:03.508Z,41.13
2022-12-05T13:26:34.407Z,40.13
2022-12-05T13:29:04.967Z,45.23
2022-12-05T13:31:39.327Z,40.23
2022-12-05T13:34:46.292Z,42.93
2022-12-05T13:37:39.148Z,43.33
2022-12-05T13:40:37.419Z,41.83
2022-12-05T13:43:06.750Z,38.47
2022-12-05T13:45:35.752Z,40.17
2022-12-05T13:48:21.891Z,38.97
2022-12-05T13:50:58.121Z,38.47
2022-12-05T13:53:39.877Z,38.67
2022-12-05T13:56:24.620Z,41.13
2022-12-05T13:58:56.900Z,40.97
2022-12-05T14:01:58.365Z,41.40
2022-12-05T14:04:51.605Z,40.53
2022-12-05T14:07:49.143Z,42.97
2022-12-05T14:10:22.460Z,43.40
2022-12-05T14:12:55.210Z,41.60
2022-12-05T14:15:32.294Z,43.63
2022-12-05T14:18:17.409Z,38.93
2022-12-05T14:21:05.589Z,41.13
2022-12-05T14:23:55.079Z,43.67
2022-12-05T14:26:40.539Z,45.57
2022-12-05T14:29:31.396Z,45.30
2022-12-05T14:32:11.879Z,45.30
2022-12-05T14:34:52.810Z,48.70
2022-12-05T14:37:30.278Z,48.17
2022-12-05T14:40:02.252Z,39.13
2022-12-05T14:42:38.871Z,45.80
2022-12-05T14:45:29.749Z,50.47
2022-12-05T14:47:59.520Z,45.43
2022-12-05T14:50:49.535Z,46.00
2022-12-05T14:53:27.411Z,41.97
2022-12-05T14:56:03.689Z,39.60
2022-12-05T14:58:36.902Z,42.83
2022-12-05T15:01:09.448Z,38.47
2022-12-05T15:03:41.999Z,44.10
2022-12-05T15:06:17.939Z,45.87
2022-12-05T15:08:50.409Z,41.93
2022-12-05T15:11:29.242Z,39.30
2022-12-05T15:14:01.777Z,39.60
2022-12-05T15:16:32.559Z,41.27
2022-12-05T15:19:04.773Z,40.83
2022-12-05T15:21:38.297Z,41.17
2022-12-05T15:24:13.398Z,39.47
2022-12-05T15:26:48.881Z,44.30
2022-12-05T15:29:26.877Z,43.87
2022-12-05T15:31:57.087Z,45.70
2022-12-05T15:34:30.381Z,39.50
2022-12-05T15:37:03.926Z,50.43
2022-12-05T15:39:51.891Z,41.93
2022-12-05T15:42:27.591Z,43.00
2022-12-05T15:45:15.757Z,49.77
2022-12-05T15:47:46.226Z,46.10
2022-12-05T15:50:15.421Z,47.73
2022-12-05T15:52:48.849Z,53.43
2022-12-05T15:55:21.481Z,46.40
2022-12-05T15:57:59.102Z,50.43
2022-12-05T16:00:28.704Z,45.63
2022-12-05T16:03:01.951Z,48.10
2022-12-05T16:05:35.385Z,44.30
2022-12-05T16:08:06.167Z,43.17
2022-12-05T16:10:35.959Z,48.23
2022-12-05T16:13:08.352Z,46.43
2022-12-05T16:15:37.756Z,46.63
2022-12-05T16:18:07.201Z,50.43
2022-12-05T16:20:36.550Z,49.90
2022-12-05T16:23:07.312Z,46.30
2022-12-05T16:25:37.399Z,53.80
2022-12-05T16:28:17.686Z,46.17
2022-12-05T16:30:58.450Z,48.17
2022-12-05T16:33:28.994Z,41.57
2022-12-05T16:35:57.633Z,45.10
2022-12-05T16:38:29.746Z,47.13
2022-12-05T16:41:00.109Z,38.73
2022-12-05T16:43:43.466Z,48.80
2022-12-05T16:46:51.091Z,46.50
2022-12-05T16:49:32.638Z,44.77
2022-12-05T16:52:02.888Z,44.53
2022-12-05T16:54:31.415Z,44.63
2022-12-05T16:57:01.491Z,43.50
2022-12-05T16:59:34.397Z,44.93
2022-12-05T17:02:04.553Z,44.77
2022-12-05T17:04:33.252Z,48.57
2022-12-05T17:07:01.659Z,44.30
2022-12-05T17:09:30.043Z,45.27
2022-12-05T17:12:03.537Z,42.23
2022-12-05T17:14:33.137Z,43.30
2022-12-05T17:17:01.405Z,45.93
2022-12-05T17:19:29.812Z,49.83
2022-12-05T17:21:58.120Z,46.73
2022-12-05T17:24:28.448Z,46.30
2022-12-05T17:26:56.729Z,41.77
2022-12-05T17:29:25.222Z,47.03
2022-12-05T17:31:56.680Z,44.60
2022-12-05T17:34:25.041Z,46.43
2022-12-05T17:36:53.313Z,47.70
2022-12-05T17:39:27.863Z,47.67
2022-12-05T17:41:57.039Z,47.97
2022-12-05T17:44:25.773Z,45.50
2022-12-05T17:46:54.388Z,48.53
2022-12-05T17:49:24.701Z,47.70
2022-12-05T17:52:20.593Z,47.43
2022-12-05T17:54:42.502Z,49.03
2022-12-05T17:57:10.767Z,51.23
2022-12-05T17:59:39.180Z,53.90
2022-12-05T18:02:07.850Z,52.60
2022-12-05T18:04:37.638Z,46.03
2022-12-05T18:07:06.092Z,48.77
2022-12-05T18:09:34.340Z,51.67
2022-12-05T18:12:02.693Z,49.20
2022-12-05T18:14:31.972Z,51.27
2022-12-05T18:17:00.286Z,48.00
2022-12-05T18:19:28.728Z,50.93
2022-12-05T18:21:58.364Z,52.77
2022-12-05T18:24:26.693Z,53.97
2022-12-05T18:26:56.193Z,53.37
2022-12-05T18:29:24.670Z,51.50
2022-12-05T18:31:53.077Z,49.87
2022-12-05T18:34:21.409Z,52.30
2022-12-05T18:36:49.670Z,52.13
2022-12-05T18:39:19.691Z,50.17
2022-12-05T18:41:48.047Z,46.97
2022-12-05T18:44:16.314Z,50.27
2022-12-05T18:46:44.684Z,51.53
2022-12-05T18:49:13.182Z,51.37
2022-12-05T18:51:41.942Z,49.37
2022-12-05T18:54:10.451Z,48.90
2022-12-05T18:56:43.151Z,49.10
2022-12-05T18:59:15.670Z,45.40
2022-12-05T19:01:44.082Z,51.63
2022-12-05T19:04:14.479Z,52.33
2022-12-05T19:06:50.559Z,47.67
2022-12-05T19:09:21.073Z,51.10
2022-12-05T19:11:54.930Z,54.77
2022-12-05T19:14:25.472Z,47.50
2022-12-05T19:16:59.810Z,51.60
2022-12-05T19:19:30.289Z,47.23
2022-12-05T19:21:59.424Z,46.70
2022-12-05T19:24:27.844Z,50.43
2022-12-05T19:26:57.448Z,52.73
2022-12-05T19:29:25.794Z,50.50
2022-12-05T19:31:54.165Z,50.90
2022-12-05T19:34:24.415Z,48.73
2022-12-05T19:36:52.794Z,50.30
2022-12-05T19:39:23.709Z,53.27
2022-12-05T19:41:52.450Z,53.83
2022-12-05T19:44:23.058Z,54.30
2022-12-05T19:46:53.192Z,54.07
2022-12-05T19:49:23.248Z,56.53
2022-12-05T19:51:52.692Z,55.37
2022-12-05T19:54:22.224Z,52.03
2022-12-05T19:56:50.488Z,53.47
2022-12-05T19:59:19.531Z,57.03
2022-12-05T20:01:49.309Z,57.93
2022-12-05T20:04:18.350Z,53.40
2022-12-05T20:06:48.717Z,56.93
2022-12-05T20:09:20.039Z,55.17
2022-12-05T20:11:55.405Z,50.10
2022-12-05T20:14:26.158Z,51.90
2022-12-05T20:16:56.098Z,54.03
2022-12-05T20:19:25.174Z,47.17
2022-12-05T20:21:55.647Z,53.37
2022-12-05T20:24:23.899Z,63.43
2022-12-05T20:26:53.062Z,58.57
2022-12-05T20:29:21.448Z,55.17
2022-12-05T20:31:56.744Z,59.67
2022-12-05T20:34:26.702Z,67.20
2022-12-05T20:36:55.091Z,54.73
2022-12-05T20:39:24.880Z,54.63
2022-12-05T20:41:53.291Z,55.50
2022-12-05T20:44:21.785Z,50.47
2022-12-05T20:46:50.922Z,53.93
2022-12-05T20:49:20.519Z,55.30
2022-12-05T20:51:50.119Z,56.23
2022-12-05T20:54:18.561Z,50.10
2022-12-05T20:56:47.061Z,52.63
2022-12-05T20:59:15.929Z,52.30
2022-12-05T21:01:44.503Z,52.10
2022-12-05T21:04:13.685Z,47.87
2022-12-05T21:06:43.867Z,51.47
2022-12-05T21:09:19.394Z,52.73
2022-12-05T21:11:47.704Z,55.93
2022-12-05T21:14:16.028Z,51.63
2022-12-05T21:16:45.580Z,52.03
2022-12-05T21:19:13.988Z,50.23
2022-12-05T21:21:42.351Z,50.33
2022-12-05T21:24:11.363Z,47.20
2022-12-05T21:26:41.418Z,56.33
2022-12-05T21:29:10.744Z,50.40
2022-12-05T21:31:42.231Z,57.27
2022-12-05T21:34:15.303Z,53.93
2022-12-05T21:36:44.951Z,54.80
2022-12-05T21:39:13.439Z,61.40
2022-12-05T21:41:43.046Z,56.33
2022-12-05T21:44:11.449Z,55.97
2022-12-05T21:46:39.751Z,52.53
2022-12-05T21:49:08.141Z,53.53
2022-12-05T21:51:36.419Z,56.27
2022-12-05T21:54:04.884Z,51.80
2022-12-05T21:56:33.328Z,60.60
2022-12-05T21:59:03.002Z,49.50
2022-12-05T22:01:31.347Z,56.23
2022-12-05T22:04:00.884Z,51.40
2022-12-05T22:06:33.581Z,47.67
2022-12-05T22:09:02.492Z,54.37
2022-12-05T22:11:31.095Z,53.23
2022-12-05T22:13:59.332Z,48.60
2022-12-05T22:16:33.430Z,50.30
2022-12-05T22:19:02.645Z,51.77
2022-12-05T22:21:33.820Z,48.90
2022-12-05T22:24:02.328Z,52.30
2022-12-05T22:26:30.772Z,52.73
2022-12-05T22:28:59.023Z,56.17
2022-12-05T22:31:27.412Z,57.90
2022-12-05T22:33:57.047Z,59.33
2022-12-05T22:36:25.592Z,65.07
2022-12-05T22:38:53.953Z,65.77
2022-12-05T22:41:24.219Z,62.60
2022-12-05T22:43:55.854Z,63.30
2022-12-05T22:46:24.568Z,62.30
2022-12-05T22:48:53.320Z,68.23
2022-12-05T22:51:23.941Z,64.13
2022-12-05T22:53:53.664Z,61.30
2022-12-05T22:56:23.537Z,76.20
2022-12-05T22:58:55.912Z,63.67
2022-12-05T23:01:25.926Z,78.27
2022-12-05T23:03:57.095Z,65.27
2022-12-05T23:06:27.839Z,58.93
2022-12-05T23:08:56.699Z,68.67
2022-12-05T23:11:26.430Z,64.63
2022-12-05T23:14:01.353Z,58.10
2022-12-05T23:16:32.522Z,65.23
2022-12-05T23:19:02.791Z,69.40
2022-12-05T23:21:34.843Z,59.23
2022-12-05T23:24:05.258Z,59.43
2022-12-05T23:26:36.382Z,64.70
2022-12-05T23:29:05.101Z,71.43
2022-12-05T23:31:33.672Z,60.73
2022-12-05T23:34:03.821Z,70.07
2022-12-05T23:36:34.742Z,62.47
2022-12-05T23:39:03.635Z,68.03
2022-12-05T23:41:32.171Z,65.70
2022-12-05T23:44:00.464Z,69.13
2022-12-05T23:46:29.802Z,65.07
2022-12-05T23:48:58.399Z,57.93
2022-12-05T23:51:28.460Z,63.93
2022-12-05T23:53:59.809Z,63.27
2022-12-05T23:56:30.447Z,58.03
2022-12-05T23:58:59.277Z,60.57
